Main page
METAR-TAF:

METAR-TAF

Airports :

Ahvaz, Iran

Ahvaz International Airport

latitude: 31-20N, longitude: 048-40E, elevation: 20 m

Current weather observation

The report was made 21 minutes ago, at 20:00 UTC
Wind 4 kt from the West/Northwest
Temperature 14°C
Humidity 44%
Pressure 1022 hPa
Visibility 10 km or more
no clouds below 1500 m and no cumulonimbus

METAR: OIAW 182000Z 29004KT CAVOK 14/02 Q1022

Time: 23:51 (20:21 UTC)

Forecast

The report was made 2 hours and 51 minutes ago, at 17:30 UTC
Forecast valid from 18 at 18 UTC to 19 at 24 UTC
Wind 6 kt from the West/Northwest
Visibility: 7000 m
Temporary
from 19 at 00 UTC to 19 at 06 UTC
Visibility: 4000 m
haze

TAF: OIAW 181730Z 1818/1924 30003MPS 7000 NSC TEMPO 1900/1906 4000 HZ

Weather observations and forecasts of more than 4000 airports (METAR and TAF reports).

The available stations are represented by yellow and red dots on the map.

Hover mouse over dot to see the name of the station.

Then click to see weather observations and forecasts.

To change the map : click on the green buttons with a black cross to zoom in, on the green button with a dash to zoom out, or on the green arrows for adjacent maps.


METAR-TAF: